Time;durP1;ratioP1;P1;durP2;ratioP2;P2;SDS_P1;SDS_P2;PMS_P1;PMS_P2;Temp;Humidity;BMP_temperature;BMP_pressure;BME280_temperature;BME280_humidity;BME280_pressure;Samples;Min_cycle;Max_cycle;Signal;HPM_P1;HPM_P2
2022/07/13 00:00:28;;;;;;;2.63;1.30;;;;;;;24.07;36.90;95384.56;5043101;28;20033;-50
2022/07/13 00:02:54;;;;;;;2.10;1.23;;;;;;;23.69;36.84;95332.19;5046086;28;20423;-50
2022/07/13 00:05:19;;;;;;;2.38;1.35;;;;;;;24.01;36.91;95383.84;5043773;28;20068;-49
2022/07/13 00:07:45;;;;;;;2.40;1.23;;;;;;;24.01;36.76;95380.41;5044369;28;20029;-49
2022/07/13 00:10:10;;;;;;;2.95;1.05;;;;;;;24.01;36.79;95375.66;5052525;28;20025;-51
2022/07/13 00:12:36;;;;;;;1.85;1.23;;;;;;;24.00;36.51;95374.19;5036895;28;20036;-50
2022/07/13 00:15:01;;;;;;;1.52;1.00;;;;;;;23.98;36.88;95376.69;5041848;28;20224;-49
2022/07/13 00:17:27;;;;;;;2.42;1.10;;;;;;;23.99;36.85;95378.16;5042796;28;20091;-50
2022/07/13 00:19:52;;;;;;;2.05;0.80;;;;;;;23.95;36.44;95376.97;5042209;28;20025;-49
2022/07/13 00:22:18;;;;;;;2.85;1.10;;;;;;;23.87;36.75;95365.09;5042584;28;20024;-50
2022/07/13 00:24:43;;;;;;;2.72;1.23;;;;;;;23.90;36.81;95381.19;5038067;28;20067;-50
2022/07/13 00:27:09;;;;;;;1.50;1.00;;;;;;;23.87;36.96;95379.47;5041840;28;20395;-50
2022/07/13 00:29:34;;;;;;;2.00;1.00;;;;;;;23.86;36.79;95382.69;5024335;28;20028;-50
2022/07/13 00:31:59;;;;;;;2.10;1.00;;;;;;;23.84;36.99;95376.25;5042110;28;20068;-50
2022/07/13 00:34:25;;;;;;;1.83;1.15;;;;;;;23.82;37.13;95389.66;5042412;28;20033;-50
2022/07/13 00:36:50;;;;;;;2.60;1.20;;;;;;;23.79;37.60;95385.22;5041606;28;20021;-50
2022/07/13 00:39:16;;;;;;;2.17;1.10;;;;;;;23.79;38.00;95380.50;5041638;28;20032;-50
2022/07/13 00:41:45;;;;;;;2.67;1.10;;;;;;;23.77;37.75;95372.09;5041412;28;20040;-50
2022/07/13 00:44:11;;;;;;;1.75;1.05;;;;;;;23.74;38.10;95378.53;5037761;28;20040;-50
2022/07/13 00:46:37;;;;;;;2.22;1.02;;;;;;;23.74;37.74;95378.53;5043316;28;20017;-50
2022/07/13 00:49:03;;;;;;;2.97;1.20;;;;;;;23.73;37.92;95379.03;5045110;28;20471;-50
2022/07/13 00:51:28;;;;;;;3.40;1.27;;;;;;;23.70;37.94;95377.31;5051409;28;20020;-51
2022/07/13 00:53:54;;;;;;;2.20;1.25;;;;;;;23.69;38.40;95381.28;5049514;28;20107;-51
2022/07/13 00:56:20;;;;;;;2.15;1.27;;;;;;;23.66;38.26;95382.28;5042084;28;20029;-50
2022/07/13 00:58:45;;;;;;;3.20;1.48;;;;;;;23.63;37.98;95377.81;5044456;28;20060;-51
2022/07/13 01:01:11;;;;;;;1.90;1.15;;;;;;;23.61;38.40;95369.41;5038166;28;20052;-50
2022/07/13 01:03:36;;;;;;;1.63;1.20;;;;;;;23.59;37.75;95371.91;5017025;28;20044;-50
2022/07/13 01:06:02;;;;;;;2.00;1.42;;;;;;;23.59;38.64;95382.81;5044436;28;20025;-50
2022/07/13 01:08:27;;;;;;;1.98;1.20;;;;;;;23.57;38.61;95377.09;5037271;28;20487;-50
2022/07/13 01:10:53;;;;;;;4.07;1.20;;;;;;;23.53;38.40;95388.25;5033662;28;20090;-50
2022/07/13 01:13:18;;;;;;;2.60;1.60;;;;;;;23.52;38.71;95388.75;5050431;28;20325;-51
2022/07/13 01:15:44;;;;;;;2.63;1.30;;;;;;;23.49;38.25;95392.50;5017186;28;20550;-51
2022/07/13 01:18:12;;;;;;;3.08;1.40;;;;;;;23.47;38.55;95392.25;5044068;28;20052;-50
2022/07/13 01:20:39;;;;;;;3.50;1.40;;;;;;;23.46;38.75;95385.31;5019296;28;20574;-51
2022/07/13 01:23:12;;;;;;;2.05;1.30;;;;;;;23.44;38.43;95371.44;5005565;28;20116;-50
2022/07/13 01:25:38;;;;;;;1.90;1.30;;;;;;;23.43;38.73;95383.59;5034642;28;20013;-53
2022/07/13 01:28:03;;;;;;;3.20;1.17;;;;;;;23.41;38.27;95373.19;5044501;28;20033;-51
2022/07/13 01:30:29;;;;;;;1.98;1.20;;;;;;;23.39;38.60;95380.38;5053816;28;20742;-50
2022/07/13 01:32:54;;;;;;;2.15;1.30;;;;;;;23.39;38.70;95380.38;5047294;28;20028;-51
2022/07/13 01:35:22;;;;;;;2.22;1.48;;;;;;;23.37;38.78;95371.97;5044759;28;20439;-50
2022/07/13 01:37:47;;;;;;;1.95;1.15;;;;;;;23.36;38.62;95369.72;5036157;28;20496;-50
2022/07/13 01:40:13;;;;;;;2.85;1.42;;;;;;;23.35;38.85;95369.00;5044623;28;20033;-50
2022/07/13 01:42:42;;;;;;;3.65;1.70;;;;;;;23.34;38.58;95372.97;5049598;28;20181;-50
2022/07/13 01:45:08;;;;;;;2.35;1.38;;;;;;;23.33;38.67;95376.91;5047340;28;20053;-50
2022/07/13 01:47:43;;;;;;;3.65;1.20;;;;;;;23.30;38.96;95375.19;5040886;28;20074;-52
2022/07/13 01:50:09;;;;;;;2.30;1.10;;;;;;;23.28;38.61;95374.97;5008835;28;20029;-50
2022/07/13 01:52:38;;;;;;;2.38;1.40;;;;;;;23.28;39.08;95368.78;5054071;28;20013;-49
2022/07/13 01:55:05;;;;;;;3.33;1.40;;;;;;;23.25;38.84;95358.88;5042831;28;20029;-50
2022/07/13 01:57:30;;;;;;;3.38;1.52;;;;;;;23.21;39.57;95370.00;5036391;28;20212;-49
2022/07/13 02:00:16;;;;;;;4.32;1.70;;;;;;;23.22;39.30;95366.06;5039053;28;20049;-49
2022/07/13 02:02:42;;;;;;;2.28;1.38;;;;;;;23.22;39.70;95371.50;5040243;28;20094;-50
2022/07/13 02:05:09;;;;;;;2.53;1.33;;;;;;;23.15;39.03;95366.59;5041323;28;20021;-49
2022/07/13 02:07:35;;;;;;;2.42;1.23;;;;;;;23.14;39.34;95376.00;5034873;28;20523;-50
2022/07/13 02:10:00;;;;;;;3.30;1.35;;;;;;;23.13;39.63;95374.50;5040625;28;20032;-50
2022/07/13 02:12:26;;;;;;;2.15;1.52;;;;;;;23.15;39.56;95377.47;5040970;28;20029;-50
2022/07/13 02:14:51;;;;;;;2.20;1.27;;;;;;;23.09;39.13;95371.31;5040140;28;20108;-50
2022/07/13 02:17:17;;;;;;;4.38;1.80;;;;;;;23.06;39.40;95364.13;5044047;28;20044;-50
2022/07/13 02:19:42;;;;;;;2.08;1.40;;;;;;;23.08;39.37;95377.97;5039719;28;20029;-50
2022/07/13 02:22:08;;;;;;;4.65;1.52;;;;;;;23.07;39.52;95376.50;5040662;28;20734;-50
2022/07/13 02:24:36;;;;;;;2.35;1.38;;;;;;;23.04;39.41;95372.03;5041301;28;20042;-50
2022/07/13 02:27:01;;;;;;;1.55;1.17;;;;;;;23.06;39.40;95379.72;5035000;28;20021;-50
2022/07/13 02:29:27;;;;;;;2.28;1.30;;;;;;;23.04;39.77;95380.22;5035899;28;20116;-50
2022/07/13 02:31:52;;;;;;;4.55;1.65;;;;;;;23.02;39.53;95374.53;5040042;28;20021;-50
2022/07/13 02:34:18;;;;;;;3.05;1.50;;;;;;;23.00;39.85;95377.00;5036894;28;20029;-49
2022/07/13 02:36:43;;;;;;;3.38;1.20;;;;;;;22.99;39.70;95380.22;5037194;28;20030;-50
2022/07/13 02:39:09;;;;;;;4.38;1.67;;;;;;;22.97;40.00;95372.56;5048562;28;20094;-49
2022/07/13 02:41:34;;;;;;;3.20;1.33;;;;;;;22.97;39.60;95375.28;5040213;28;20033;-51
2022/07/13 02:44:00;;;;;;;2.95;1.50;;;;;;;22.96;39.67;95381.97;5037137;28;20026;-50
2022/07/13 02:46:25;;;;;;;3.80;1.50;;;;;;;22.95;39.70;95374.28;5039746;28;20029;-50
2022/07/13 02:48:50;;;;;;;4.25;1.50;;;;;;;22.93;39.38;95372.06;5039375;28;20029;-50
2022/07/13 02:51:16;;;;;;;4.60;2.13;;;;;;;22.93;39.25;95382.97;5039286;28;20037;-50
2022/07/13 02:53:42;;;;;;;4.85;1.50;;;;;;;22.91;39.93;95379.97;5037849;28;20036;-48
2022/07/13 02:56:07;;;;;;;2.47;1.30;;;;;;;22.88;40.07;95380.97;5040019;28;20036;-49
2022/07/13 02:58:33;;;;;;;2.42;1.50;;;;;;;22.88;40.22;95376.75;5039778;28;20056;-50
2022/07/13 03:00:58;;;;;;;3.88;1.23;;;;;;;22.86;40.37;95371.06;5039565;28;20108;-50
2022/07/13 03:03:24;;;;;;;2.47;1.58;;;;;;;22.84;39.53;95368.06;5040716;28;20446;-49
2022/07/13 03:05:49;;;;;;;5.60;1.30;;;;;;;22.83;40.10;95372.06;5040672;28;20021;-50
2022/07/13 03:08:15;;;;;;;2.88;1.30;;;;;;;22.80;40.28;95373.03;5039332;28;20866;-51
2022/07/13 03:10:40;;;;;;;2.00;1.35;;;;;;;22.80;40.26;95379.22;5040517;28;20419;-51
2022/07/13 03:13:06;;;;;;;4.13;1.75;;;;;;;22.81;40.22;95380.72;5050845;28;20013;-49
2022/07/13 03:15:32;;;;;;;2.70;1.58;;;;;;;22.76;40.50;95372.53;5040255;28;20439;-51
2022/07/13 03:17:57;;;;;;;2.28;1.55;;;;;;;22.77;40.11;95376.75;5040304;28;20459;-50
2022/07/13 03:20:23;;;;;;;2.38;1.42;;;;;;;22.69;40.25;95367.59;5050707;28;20068;-50
2022/07/13 03:22:49;;;;;;;2.50;1.40;;;;;;;22.76;40.58;95378.00;5036834;28;20819;-50
2022/07/13 03:25:14;;;;;;;3.15;1.40;;;;;;;22.70;40.82;95369.09;5053812;28;20028;-51
2022/07/13 03:27:40;;;;;;;2.65;1.63;;;;;;;22.72;40.22;95375.53;5043012;28;20047;-50
2022/07/13 03:30:06;;;;;;;3.78;1.65;;;;;;;22.71;40.01;95370.56;5052362;28;20025;-49
2022/07/13 03:32:31;;;;;;;2.88;1.48;;;;;;;22.73;40.25;95362.66;5045009;28;20033;-50
2022/07/13 03:34:57;;;;;;;3.45;1.70;;;;;;;22.71;40.19;95359.69;5043969;28;20036;-50
2022/07/13 03:37:22;;;;;;;3.38;1.70;;;;;;;22.72;40.01;95361.16;5044778;28;20036;-50
2022/07/13 03:39:48;;;;;;;2.70;1.40;;;;;;;22.73;40.14;95370.81;5040454;28;20029;-52
2022/07/13 03:42:13;;;;;;;2.53;1.25;;;;;;;22.72;40.39;95372.03;5040765;28;20037;-49
2022/07/13 03:44:39;;;;;;;2.67;1.58;;;;;;;22.73;40.37;95368.09;5043437;28;20021;-51
2022/07/13 03:47:04;;;;;;;3.03;1.67;;;;;;;22.73;39.81;95368.81;5052089;28;20362;-50
2022/07/13 03:49:30;;;;;;;3.03;1.52;;;;;;;22.74;40.16;95369.59;5024875;28;20771;-50
2022/07/13 03:51:55;;;;;;;3.28;1.33;;;;;;;22.73;40.15;95373.53;5042739;28;20812;-51
2022/07/13 03:54:21;;;;;;;2.53;1.50;;;;;;;22.70;40.23;95369.09;5047298;28;20098;-49
2022/07/13 03:56:47;;;;;;;2.83;1.70;;;;;;;22.72;40.71;95377.47;5050431;28;20496;-50
2022/07/13 03:59:12;;;;;;;3.25;1.50;;;;;;;22.72;40.60;95378.25;5055127;28;20049;-58
2022/07/13 04:01:38;;;;;;;2.53;1.65;;;;;;;22.71;40.60;95376.75;5051194;28;20546;-50
2022/07/13 04:04:03;;;;;;;2.75;1.45;;;;;;;22.73;40.56;95378.97;5043376;28;20021;-50
2022/07/13 04:06:29;;;;;;;4.13;1.67;;;;;;;22.72;40.99;95383.69;5038540;28;20037;-51
2022/07/13 04:08:55;;;;;;;2.47;1.50;;;;;;;22.73;40.80;95374.28;5047335;28;20036;-51
2022/07/13 04:11:20;;;;;;;3.97;1.73;;;;;;;22.75;41.10;95379.22;5043277;28;20024;-51
2022/07/13 04:13:45;;;;;;;2.20;1.70;;;;;;;22.74;40.63;95386.66;5042574;28;20055;-52
2022/07/13 04:16:11;;;;;;;3.08;1.77;;;;;;;22.71;40.77;95389.63;5038639;28;20021;-51
2022/07/13 04:18:36;;;;;;;4.55;1.98;;;;;;;22.68;40.71;95387.91;5033788;28;20032;-49
2022/07/13 04:21:02;;;;;;;5.47;2.53;;;;;;;22.69;40.78;95401.03;5042742;28;20086;-51
2022/07/13 04:23:28;;;;;;;4.28;2.20;;;;;;;22.65;40.37;95397.06;5033342;28;20028;-51
2022/07/13 04:25:54;;;;;;;3.00;1.75;;;;;;;22.66;40.46;95398.53;5042087;28;20029;-50
2022/07/13 04:28:20;;;;;;;4.28;1.80;;;;;;;22.65;40.15;95397.06;5042466;28;20013;-49
2022/07/13 04:30:45;;;;;;;5.15;2.17;;;;;;;22.66;40.56;95401.25;5049091;28;20013;-49
2022/07/13 04:33:11;;;;;;;4.40;1.90;;;;;;;22.66;40.32;95409.41;5044746;28;20021;-51
2022/07/13 04:35:36;;;;;;;4.38;2.25;;;;;;;22.65;40.57;95408.69;5041532;28;20028;-49
2022/07/13 04:38:02;;;;;;;3.50;2.05;;;;;;;22.60;40.47;95386.88;5044332;28;20033;-50
2022/07/13 04:40:27;;;;;;;6.80;2.63;;;;;;;22.66;40.44;95401.25;5041438;28;20346;-50
2022/07/13 04:42:53;;;;;;;5.50;2.13;;;;;;;22.67;40.35;95403.47;5041876;28;20036;-50
2022/07/13 04:45:19;;;;;;;6.80;2.30;;;;;;;22.68;40.56;95398.78;5040413;28;20017;-50
2022/07/13 04:47:45;;;;;;;5.60;2.40;;;;;;;22.67;40.32;95402.75;5039844;28;20033;-49
2022/07/13 04:50:11;;;;;;;6.05;2.40;;;;;;;22.68;40.47;95387.91;5042430;28;20025;-49
2022/07/13 04:52:36;;;;;;;7.05;2.30;;;;;;;22.71;40.70;95400.53;5041407;28;20557;-49
2022/07/13 04:55:02;;;;;;;4.65;2.20;;;;;;;22.73;40.31;95396.03;5037319;28;20053;-50
2022/07/13 04:57:29;;;;;;;5.40;2.20;;;;;;;22.77;40.80;95401.25;5042654;28;20714;-50
2022/07/13 04:59:55;;;;;;;3.95;2.33;;;;;;;22.77;40.33;95395.81;5049631;28;20222;-51
2022/07/13 05:02:20;;;;;;;8.90;2.53;;;;;;;22.79;40.53;95390.63;5041845;28;20516;-50
2022/07/13 05:04:46;;;;;;;6.22;2.42;;;;;;;22.88;40.19;95397.31;5042535;28;20024;-50
2022/07/13 05:07:11;;;;;;;6.40;2.10;;;;;;;22.96;40.35;95403.03;5033845;28;20044;-50
2022/07/13 05:09:36;;;;;;;7.05;2.80;;;;;;;22.99;40.22;95405.47;5049183;28;20154;-51
2022/07/13 05:12:03;;;;;;;4.72;2.17;;;;;;;23.04;39.99;95404.72;5036051;28;20029;-50
2022/07/13 05:14:28;;;;;;;7.00;1.92;;;;;;;23.12;39.91;95397.53;5053133;28;20032;-50
2022/07/13 05:16:54;;;;;;;6.75;2.22;;;;;;;23.21;39.91;95399.97;5046712;28;20053;-51
2022/07/13 05:19:19;;;;;;;6.15;1.88;;;;;;;23.32;40.08;95396.50;5042286;28;20029;-50
2022/07/13 05:21:44;;;;;;;6.00;2.08;;;;;;;23.38;39.57;95396.00;5041663;28;20029;-52
2022/07/13 05:24:10;;;;;;;8.25;2.65;;;;;;;23.51;40.28;95404.38;5043069;28;20122;-52
2022/07/13 05:26:36;;;;;;;6.50;2.05;;;;;;;23.62;40.09;95395.44;5050425;28;20439;-53
2022/07/13 05:29:04;;;;;;;3.55;1.80;;;;;;;23.78;39.89;95400.09;5049533;28;20033;-51
2022/07/13 05:31:30;;;;;;;3.88;1.60;;;;;;;23.88;39.81;95400.06;5044299;28;20037;-51
2022/07/13 05:33:55;;;;;;;4.00;1.95;;;;;;;24.05;40.65;95403.44;5058733;28;20051;-51
2022/07/13 05:36:21;;;;;;;5.60;1.70;;;;;;;24.23;40.17;95408.31;5059648;28;20393;-52
2022/07/13 05:38:46;;;;;;;4.28;1.30;;;;;;;24.33;39.46;95411.50;5054346;28;20668;-52
2022/07/13 05:41:12;;;;;;;4.53;1.20;;;;;;;24.45;38.24;95408.19;5043331;28;20490;-53
2022/07/13 05:43:38;;;;;;;4.43;1.20;;;;;;;24.58;37.52;95405.63;5051180;28;21388;-52
2022/07/13 05:46:04;;;;;;;4.65;1.50;;;;;;;24.67;36.87;95410.75;5024016;28;20140;-52
2022/07/13 05:48:29;;;;;;;5.38;1.25;;;;;;;24.58;36.71;95381.03;5044626;28;20033;-52
2022/07/13 05:50:55;;;;;;;3.22;1.63;;;;;;;24.82;36.69;95408.41;5047421;28;20131;-51
2022/07/13 05:53:20;;;;;;;1.83;1.08;;;;;;;24.85;36.67;95397.94;5043345;28;20511;-52
2022/07/13 05:55:46;;;;;;;3.92;1.40;;;;;;;24.71;36.12;95353.84;5042210;28;20032;-51
2022/07/13 05:58:13;;;;;;;3.40;1.30;;;;;;;25.13;35.66;95401.19;5042835;28;20122;-50
2022/07/13 06:00:39;;;;;;;3.47;1.30;;;;;;;25.24;36.27;95403.81;5043400;28;20056;-56
2022/07/13 06:03:05;;;;;;;5.75;1.48;;;;;;;25.41;36.04;95415.31;5041541;28;20040;-51
2022/07/13 06:05:31;;;;;;;2.80;1.23;;;;;;;25.49;35.78;95402.56;5051924;28;20032;-52
2022/07/13 06:07:57;;;;;;;3.33;1.20;;;;;;;25.62;35.78;95402.66;5043017;28;20032;-51
2022/07/13 06:10:22;;;;;;;2.85;1.30;;;;;;;25.74;35.78;95402.06;5039888;28;20033;-53
2022/07/13 06:12:47;;;;;;;3.95;1.38;;;;;;;25.87;35.43;95397.44;5039727;28;20074;-50
2022/07/13 06:15:13;;;;;;;2.67;1.15;;;;;;;25.93;34.55;95400.84;5038973;28;20428;-51
2022/07/13 06:17:38;;;;;;;2.58;1.10;;;;;;;25.97;34.29;95395.78;5039803;28;20048;-52
2022/07/13 06:20:05;;;;;;;2.97;1.15;;;;;;;26.04;34.42;95389.75;5040297;28;20033;-51
2022/07/13 06:22:31;;;;;;;3.55;0.82;;;;;;;25.90;33.97;95363.56;5039750;28;20488;-51
2022/07/13 06:24:56;;;;;;;2.90;1.10;;;;;;;26.20;34.21;95394.25;5037809;28;20068;-52
2022/07/13 06:27:22;;;;;;;3.97;1.25;;;;;;;26.28;34.10;95393.16;5039879;28;20035;-52
2022/07/13 06:29:47;;;;;;;3.08;1.00;;;;;;;26.39;34.25;95403.22;5034075;28;20551;-54
2022/07/13 06:32:13;;;;;;;2.67;0.90;;;;;;;26.46;33.98;95386.94;5033447;28;20104;-50
2022/07/13 06:34:38;;;;;;;3.33;0.93;;;;;;;26.55;33.84;95389.28;5034177;28;20061;-51
2022/07/13 06:37:04;;;;;;;2.72;0.90;;;;;;;26.63;34.54;95394.91;5040382;28;20086;-51
2022/07/13 06:39:29;;;;;;;4.97;1.17;;;;;;;26.67;34.40;95389.88;5039923;28;20499;-50
2022/07/13 06:41:55;;;;;;;1.65;0.70;;;;;;;26.72;34.64;95391.78;5040551;28;20543;-52
2022/07/13 06:44:21;;;;;;;3.28;1.15;;;;;;;26.72;34.98;95386.28;5023935;28;20025;-50
2022/07/13 06:46:46;;;;;;;1.92;0.77;;;;;;;26.74;34.62;95383.75;5032270;28;20025;-50
2022/07/13 06:49:12;;;;;;;2.47;0.90;;;;;;;26.76;34.83;95386.72;5037638;28;20040;-52
2022/07/13 06:51:38;;;;;;;1.60;1.00;;;;;;;26.75;35.21;95382.50;5021847;28;20022;-51
2022/07/13 06:54:03;;;;;;;4.50;0.93;;;;;;;26.72;35.05;95378.78;5042622;28;20159;-51
2022/07/13 06:56:29;;;;;;;2.85;0.90;;;;;;;26.70;34.93;95377.84;5036798;28;20396;-51
2022/07/13 06:58:54;;;;;;;2.63;1.10;;;;;;;26.63;34.98;95372.97;5033747;28;20060;-50
2022/07/13 07:01:20;;;;;;;1.65;0.75;;;;;;;26.64;35.12;95379.94;5041889;28;20041;-50
2022/07/13 07:03:46;;;;;;;2.17;1.15;;;;;;;26.58;35.21;95376.56;5042466;28;20021;-51
2022/07/13 07:06:12;;;;;;;3.63;1.25;;;;;;;26.54;35.23;95376.09;5044558;28;20032;-51
2022/07/13 07:08:37;;;;;;;3.15;1.00;;;;;;;26.50;35.36;95381.13;5042755;28;21992;-52
2022/07/13 07:11:03;;;;;;;1.60;0.90;;;;;;;26.47;35.85;95376.69;5044207;28;20013;-51
2022/07/13 07:13:28;;;;;;;1.67;0.98;;;;;;;26.44;35.87;95377.75;5038181;28;20025;-51
2022/07/13 07:15:54;;;;;;;1.00;0.80;;;;;;;26.41;35.99;95376.03;5042423;28;20032;-51
2022/07/13 07:18:21;;;;;;;1.27;0.80;;;;;;;26.40;36.27;95385.53;5043518;28;20021;-52
2022/07/13 07:20:48;;;;;;;1.58;0.80;;;;;;;26.38;36.19;95379.81;5043627;28;20029;-51
2022/07/13 07:23:14;;;;;;;1.98;0.85;;;;;;;26.34;36.10;95384.88;5044295;28;21332;-51
2022/07/13 07:25:39;;;;;;;3.13;0.90;;;;;;;26.30;36.42;95373.47;5026590;28;20036;-52
2022/07/13 07:28:05;;;;;;;3.17;1.15;;;;;;;26.29;36.67;95393.88;5033711;28;20022;-51
2022/07/13 07:30:31;;;;;;;2.58;0.93;;;;;;;26.27;36.71;95390.91;5041880;28;20424;-51
2022/07/13 07:32:56;;;;;;;3.40;1.08;;;;;;;26.25;36.66;95393.44;5044263;28;20379;-50
2022/07/13 07:35:22;;;;;;;1.08;0.82;;;;;;;26.23;36.67;95384.97;5043617;28;20427;-51
2022/07/13 07:37:47;;;;;;;2.25;1.05;;;;;;;26.21;36.72;95387.50;5043909;28;20515;-51
2022/07/13 07:40:13;;;;;;;3.13;1.10;;;;;;;26.20;37.04;95391.50;5044526;28;20437;-51
2022/07/13 07:42:38;;;;;;;2.90;0.93;;;;;;;26.18;37.12;95388.53;5043897;28;20546;-51
2022/07/13 07:45:04;;;;;;;1.75;0.88;;;;;;;26.17;37.05;95394.53;5041940;28;20423;-50
2022/07/13 07:47:30;;;;;;;1.85;0.82;;;;;;;26.15;37.06;95389.59;5043070;28;20403;-50
2022/07/13 07:49:55;;;;;;;2.65;1.13;;;;;;;26.13;37.38;95386.63;5043074;28;20147;-50
2022/07/13 07:52:21;;;;;;;2.50;1.02;;;;;;;26.13;37.33;95380.41;5025617;28;20753;-50
2022/07/13 07:54:47;;;;;;;2.13;1.00;;;;;;;26.11;37.47;95386.41;5041570;28;20010;-50
2022/07/13 07:57:12;;;;;;;2.40;0.73;;;;;;;26.11;37.35;95378.19;5024286;28;20223;-50
2022/07/13 07:59:38;;;;;;;2.38;1.00;;;;;;;26.10;37.60;95376.72;5043870;28;20504;-49
2022/07/13 08:02:03;;;;;;;2.42;0.90;;;;;;;26.07;37.21;95372.28;5025365;28;20028;-49
2022/07/13 08:04:29;;;;;;;3.60;1.55;;;;;;;26.07;37.17;95377.75;5043377;28;20032;-50
2022/07/13 08:06:54;;;;;;;1.60;1.20;;;;;;;26.07;37.27;95364.06;5043689;28;20053;-51
2022/07/13 08:09:20;;;;;;;1.83;0.90;;;;;;;26.04;37.01;95367.84;5043679;28;20627;-50
2022/07/13 08:11:45;;;;;;;1.63;0.90;;;;;;;26.07;36.99;95366.03;5022917;28;21006;-51
2022/07/13 08:14:11;;;;;;;2.42;1.05;;;;;;;26.05;37.10;95377.53;5033975;28;20876;-50
2022/07/13 08:16:37;;;;;;;2.97;0.90;;;;;;;26.05;37.08;95377.53;5038300;28;20499;-50
2022/07/13 08:19:02;;;;;;;1.33;0.75;;;;;;;26.05;37.10;95374.81;5038836;28;20028;-50
2022/07/13 08:21:28;;;;;;;1.25;0.80;;;;;;;26.03;37.13;95371.81;5024492;28;20036;-51
2022/07/13 08:23:54;;;;;;;1.88;0.80;;;;;;;26.04;37.26;95378.78;5043113;28;20028;-49
2022/07/13 08:26:27;;;;;;;3.45;1.15;;;;;;;26.04;37.27;95378.78;5043475;28;20078;-51
2022/07/13 08:28:53;;;;;;;1.60;1.00;;;;;;;26.04;37.43;95373.31;5043312;28;20087;-50
2022/07/13 08:31:22;;;;;;;5.07;0.90;;;;;;;26.02;35.62;95384.06;5042968;28;20055;-50
2022/07/13 08:39:20;;;;;;;1.73;0.85;;;;;;;25.98;36.33;95375.38;5022505;28;20048;-50
2022/07/13 08:41:46;;;;;;;1.88;0.90;;;;;;;26.00;36.23;95372.88;5028381;28;20028;-51
2022/07/13 08:44:11;;;;;;;1.42;0.80;;;;;;;26.00;36.55;95372.88;5042974;28;20041;-50
2022/07/13 08:46:37;;;;;;;2.45;0.98;;;;;;;26.00;36.42;95378.34;5037266;28;20025;-50
2022/07/13 08:49:03;;;;;;;3.40;0.95;;;;;;;25.99;36.60;95376.88;5041201;28;20036;-50
2022/07/13 08:51:29;;;;;;;2.92;0.75;;;;;;;26.00;36.64;95372.88;5034986;28;20021;-51
2022/07/13 08:53:55;;;;;;;3.45;1.00;;;;;;;25.95;36.77;95370.94;5040817;28;20059;-50
2022/07/13 08:56:21;;;;;;;3.55;0.88;;;;;;;26.00;36.79;95372.88;5043019;28;20025;-50
2022/07/13 08:58:46;;;;;;;2.63;0.80;;;;;;;25.92;36.37;95361.03;5042685;28;20150;-50
2022/07/13 09:01:12;;;;;;;2.97;1.00;;;;;;;26.01;36.45;95374.34;5020016;28;20116;-50
2022/07/13 09:03:38;;;;;;;2.40;0.70;;;;;;;26.08;35.27;95379.22;5036086;28;20629;-56
2022/07/13 09:06:03;;;;;;;0.90;0.60;;;;;;;26.11;35.13;95367.22;5037644;28;20047;-51
2022/07/13 09:08:29;;;;;;;2.85;0.73;;;;;;;26.11;34.24;95372.72;5036767;28;20029;-51
2022/07/13 09:10:59;;;;;;;3.05;0.80;;;;;;;26.07;35.00;95366.81;5029299;28;20037;-51
2022/07/13 09:13:41;;;;;;;1.55;0.73;;;;;;;26.13;34.83;95370.22;5042867;28;20028;-51
2022/07/13 09:16:12;;;;;;;3.67;0.85;;;;;;;26.22;33.70;95367.09;5034036;28;20041;-51
2022/07/13 09:18:38;;;;;;;5.43;1.08;;;;;;;26.28;33.06;95365.03;5048377;28;20029;-58
2022/07/13 09:21:03;;;;;;;2.30;0.90;;;;;;;26.35;32.81;95375.38;5042515;28;20408;-50
2022/07/13 09:23:29;;;;;;;2.00;0.73;;;;;;;26.36;31.92;95360.44;5040541;28;20029;-51
2022/07/13 09:25:55;;;;;;;3.15;0.70;;;;;;;26.51;31.38;95371.66;5023501;28;20021;-51
2022/07/13 09:28:21;;;;;;;2.25;0.75;;;;;;;26.46;31.00;95342.38;5041377;28;20108;-51
2022/07/13 09:30:46;;;;;;;4.38;0.88;;;;;;;26.64;31.35;95363.50;5020340;28;20025;-53
2022/07/13 09:33:12;;;;;;;1.58;0.85;;;;;;;26.78;31.47;95363.00;5051255;28;20069;-51
2022/07/13 09:35:48;;;;;;;1.80;0.80;;;;;;;26.84;30.64;95345.19;5056134;28;20554;-50
2022/07/13 09:38:46;;;;;;;0.95;0.55;;;;;;;27.05;30.89;95348.13;5052584;28;20322;-51
2022/07/13 09:41:18;;;;;;;3.28;0.77;;;;;;;27.13;30.38;95359.94;5001790;28;20048;-51
2022/07/13 09:46:50;;;;;;;2.60;0.68;;;;;;;27.30;30.36;95350.16;5042540;28;20040;-51
2022/07/13 09:49:19;;;;;;;2.33;0.60;;;;;;;27.31;30.77;95351.63;5042824;28;20041;-51
2022/07/13 09:51:45;;;;;;;1.92;0.70;;;;;;;27.51;30.93;95340.78;5042690;28;20834;-53
2022/07/13 09:54:11;;;;;;;2.03;0.85;;;;;;;27.63;30.19;95341.31;5018664;28;20031;-51
2022/07/13 09:56:38;;;;;;;5.05;0.82;;;;;;;27.72;29.80;95332.63;5038525;28;20072;-56
2022/07/13 09:59:04;;;;;;;1.40;0.52;;;;;;;27.77;30.24;95333.25;5039817;28;20048;-51
2022/07/13 10:01:31;;;;;;;2.67;0.80;;;;;;;27.80;29.74;95343.19;5024351;28;20037;-52
2022/07/13 10:03:57;;;;;;;2.90;1.10;;;;;;;27.91;30.19;95334.72;5032731;28;20048;-54
2022/07/13 10:06:22;;;;;;;3.55;0.70;;;;;;;28.01;30.09;95338.50;5039903;28;20033;-51
2022/07/13 10:08:48;;;;;;;1.85;0.75;;;;;;;28.07;30.20;95330.13;5023261;28;20040;-50
2022/07/13 10:11:14;;;;;;;3.15;1.40;;;;;;;28.10;29.70;95346.31;5020316;28;20435;-51
2022/07/13 10:13:40;;;;;;;1.25;0.80;;;;;;;28.22;29.55;95342.06;4994297;28;20032;-51
2022/07/13 10:16:05;;;;;;;2.17;0.75;;;;;;;28.32;29.02;95340.31;5024345;28;20755;-51
2022/07/13 10:18:32;;;;;;;2.78;0.70;;;;;;;28.38;28.12;95332.69;5036926;28;20021;-51
2022/07/13 10:21:03;;;;;;;3.15;1.20;;;;;;;28.29;28.76;95335.88;5040754;28;20183;-51
2022/07/13 10:23:36;;;;;;;2.30;0.68;;;;;;;28.48;28.56;95319.97;5024248;28;20032;-51
2022/07/13 10:26:02;;;;;;;1.42;0.80;;;;;;;28.51;28.62;95318.91;5040211;28;20017;-54
2022/07/13 10:28:27;;;;;;;1.00;0.70;;;;;;;28.30;28.81;95315.41;5022181;28;20036;-52
2022/07/13 10:30:53;;;;;;;3.13;0.80;;;;;;;28.36;28.31;95318.75;5027341;28;20036;-51
2022/07/13 10:33:20;;;;;;;2.05;0.63;;;;;;;28.47;28.34;95318.47;5041233;28;20108;-52
2022/07/13 10:35:49;;;;;;;4.50;0.73;;;;;;;28.38;28.92;95321.69;5044902;28;20040;-51
2022/07/13 10:38:27;;;;;;;;;;;;;;;28.44;28.82;95314.06;5044825;28;20483;-50
2022/07/13 10:41:21;;;;;;;3.33;0.60;;;;;;;28.31;28.89;95316.84;5042181;28;20645;-51
2022/07/13 10:44:05;;;;;;;2.70;0.70;;;;;;;28.28;29.27;95323.41;5045716;28;20033;-51
2022/07/13 10:46:49;;;;;;;2.22;0.80;;;;;;;28.30;28.90;95326.38;5041562;28;20577;-50
2022/07/13 10:49:41;;;;;;;2.50;0.80;;;;;;;28.26;29.36;95331.47;5026018;28;20060;-51
2022/07/13 10:52:20;;;;;;;1.10;0.63;;;;;;;28.18;29.89;95318.94;5045110;28;20029;-51
2022/07/13 10:55:03;;;;;;;2.65;0.70;;;;;;;28.14;30.26;95329.50;5024060;28;20455;-50
2022/07/13 10:57:30;;;;;;;1.58;0.80;;;;;;;28.05;30.68;95316.19;5040806;28;20170;-50
2022/07/13 11:00:18;;;;;;;2.47;0.68;;;;;;;27.99;30.88;95313.56;5038297;28;20121;-51
2022/07/13 11:03:22;;;;;;;1.35;0.50;;;;;;;27.94;31.30;95311.69;5041959;28;20665;-52
2022/07/13 11:06:06;;;;;;;1.73;0.70;;;;;;;27.88;31.59;95313.81;5040569;28;20056;-51
2022/07/13 11:08:31;;;;;;;2.28;0.90;;;;;;;27.79;32.15;95317.00;5033819;28;20025;-51
2022/07/13 11:11:16;;;;;;;1.23;0.88;;;;;;;27.77;31.96;95303.06;5040951;28;20053;-51
2022/07/13 11:13:44;;;;;;;1.40;0.70;;;;;;;27.71;32.61;95314.69;5043894;28;20036;-52
2022/07/13 11:16:10;;;;;;;1.38;0.90;;;;;;;27.66;32.79;95312.81;5027000;28;20028;-50
2022/07/13 11:18:36;;;;;;;2.55;0.80;;;;;;;27.63;33.05;95302.88;5037952;28;20032;-51
2022/07/13 11:21:08;;;;;;;2.05;0.60;;;;;;;27.57;32.29;95305.75;5040233;28;20032;-52
2022/07/13 11:26:51;;;;;;;2.33;0.77;;;;;;;27.52;32.38;95303.09;5027367;28;20120;-51
2022/07/13 11:29:25;;;;;;;1.35;0.73;;;;;;;27.48;32.49;95291.69;5041017;28;20029;-52
2022/07/13 11:31:55;;;;;;;1.52;0.60;;;;;;;27.44;33.09;95294.00;5040726;28;20037;-50
2022/07/13 11:34:21;;;;;;;;;;;;;;;27.46;32.97;95286.00;5040709;28;20029;-50
2022/07/13 11:36:47;;;;;;;1.55;0.70;;;;;;;27.38;33.42;95282.41;5014488;28;19935;-51
2022/07/13 11:39:23;;;;;;;2.35;0.70;;;;;;;27.35;33.24;95284.22;5034869;28;20048;-50
2022/07/13 11:41:48;;;;;;;1.27;0.75;;;;;;;27.26;33.51;95270.19;5031215;28;20033;-51
2022/07/13 11:44:14;;;;;;;2.63;0.80;;;;;;;27.28;33.96;95289.59;5044864;28;20036;-52